Terminal Aerodrome Forecast
Issued by NWS Louisville, KY

Home | Current Version | Previous Version | Text Only | Print | Product List | Glossary On
Versions: 1 2 3 4 5 6 7 8 9 10 11 12 13 14 15 16 17 18 19 20 21
848
FTUS43 KLMK 062329
TAFBWG
TAF
KBWG 062329Z 0700/0724 30007KT P6SM OVC012
     FM070500 33004KT 5SM BR OVC018
     FM071100 VRB03KT 3SM BR SCT018
     FM071500 01004KT P6SM SCT250=

USA.gov is the U.S. government's official web portal to all federal, state and local government web resources and services.